KCHD

Chandler Municipal Airport

Chandler, Arizona, USA
METAR KCHD 201447Z 00000KT 10SM SCT070 07/M11 A3003
Observed Flight Rules
Feb-20 @ 14:47 UTC (2 hours ago) Visual Flight Rules
Wind Visibility Clouds
Calm 10 miles
  • Scattered at 7,000' AGL
Temperatures Readings
Current 7°C / 45°F
Dewpoint -11°C / 12°F
Humidity 27%
Altimeter 30.03" Hg
Pressure 1017 hPa
Elevation 379
METAR KCHD 201447Z 00000KT 10SM SCT070 07/M11 A3003
Observed Flight Rules
Feb-20 @ 14:47 UTC
(2 hours ago)
VFR
Wind Visibility
Calm 10 miles
Clouds
  • Scattered at 7,000' AGL
Temperature Dewpoint
7°C / 45°F -11°C / 12°F
Humidity Altimeter Pressure
27% 30.03" Hg 1017 hPa